sensor_id;sensor_type;location;lat;lon;timestamp;pressure;altitude;pressure_sealevel;temperature
69590;BMP180;56792;50.644;17.984;2022-12-18T09:58:47;101663.20;;;-3.60
69590;BMP180;56792;50.644;17.984;2022-12-18T10:01:27;101665.40;;;-3.50
69590;BMP180;56792;50.644;17.984;2022-12-18T10:04:04;101658.40;;;-3.50
69590;BMP180;56792;50.644;17.984;2022-12-18T10:06:45;101660.20;;;-3.50
69590;BMP180;56792;50.644;17.984;2022-12-18T10:09:30;101658.60;;;-3.50
69590;BMP180;56792;50.644;17.984;2022-12-18T10:12:16;101654.80;;;-3.50
69590;BMP180;56792;50.644;17.984;2022-12-18T10:15:03;101648.00;;;-3.50
69590;BMP180;56792;50.644;17.984;2022-12-18T10:17:45;101636.20;;;-3.50
69590;BMP180;56792;50.644;17.984;2022-12-18T10:20:32;101626.80;;;-3.50
69590;BMP180;56792;50.644;17.984;2022-12-18T10:23:17;101623.00;;;-3.54
69590;BMP180;56792;50.644;17.984;2022-12-18T10:26:03;101620.60;;;-3.58
69590;BMP180;56792;50.644;17.984;2022-12-18T10:28:43;101624.40;;;-3.50
69590;BMP180;56792;50.644;17.984;2022-12-18T10:31:25;101623.80;;;-3.40
69590;BMP180;56792;50.644;17.984;2022-12-18T10:34:00;101621.40;;;-3.40
69590;BMP180;56792;50.644;17.984;2022-12-18T10:36:34;101624.80;;;-3.40
69590;BMP180;56792;50.644;17.984;2022-12-18T10:39:22;101626.00;;;-3.30
69590;BMP180;56792;50.644;17.984;2022-12-18T10:42:11;101630.20;;;-3.30
69590;BMP180;56792;50.644;17.984;2022-12-18T10:45:08;101635.20;;;-3.30
69590;BMP180;56792;50.644;17.984;2022-12-18T10:47:46;101639.00;;;-3.30
69590;BMP180;56792;50.644;17.984;2022-12-18T10:50:30;101639.20;;;-3.30
69590;BMP180;56792;50.644;17.984;2022-12-18T10:53:05;101635.40;;;-3.30
69590;BMP180;56792;50.644;17.984;2022-12-18T10:55:41;101634.80;;;-3.30
69590;BMP180;56792;50.644;17.984;2022-12-18T10:58:30;101633.60;;;-3.30
69590;BMP180;56792;50.644;17.984;2022-12-18T11:01:13;101640.20;;;-3.20
69590;BMP180;56792;50.644;17.984;2022-12-18T11:04:08;101635.40;;;-3.22
69590;BMP180;56792;50.644;17.984;2022-12-18T11:07:01;101636.40;;;-3.20
69590;BMP180;56792;50.644;17.984;2022-12-18T11:09:36;101634.80;;;-3.20
69590;BMP180;56792;50.644;17.984;2022-12-18T11:12:19;101634.00;;;-3.20
69590;BMP180;56792;50.644;17.984;2022-12-18T11:14:56;101638.80;;;-3.20
69590;BMP180;56792;50.644;17.984;2022-12-18T11:17:34;101642.20;;;-3.20
69590;BMP180;56792;50.644;17.984;2022-12-18T11:20:21;101640.80;;;-3.10
69590;BMP180;56792;50.644;17.984;2022-12-18T11:23:12;101647.60;;;-3.00
69590;BMP180;56792;50.644;17.984;2022-12-18T11:25:57;101649.00;;;-3.00
69590;BMP180;56792;50.644;17.984;2022-12-18T11:28:37;101645.40;;;-2.90
69590;BMP180;56792;50.644;17.984;2022-12-18T11:31:28;101645.40;;;-3.00
69590;BMP180;56792;50.644;17.984;2022-12-18T11:34:08;101648.00;;;-3.00
69590;BMP180;56792;50.644;17.984;2022-12-18T11:36:50;101651.20;;;-3.10
69590;BMP180;56792;50.644;17.984;2022-12-18T11:39:33;101657.00;;;-3.20
69590;BMP180;56792;50.644;17.984;2022-12-18T11:42:17;101657.20;;;-3.16
69590;BMP180;56792;50.644;17.984;2022-12-18T11:44:57;101659.40;;;-3.12
69590;BMP180;56792;50.644;17.984;2022-12-18T11:47:41;101654.40;;;-3.10
69590;BMP180;56792;50.644;17.984;2022-12-18T11:50:21;101655.20;;;-3.00
69590;BMP180;56792;50.644;17.984;2022-12-18T19:16:34;101690.40;;;-10.70
69590;BMP180;56792;50.644;17.984;2022-12-18T19:19:12;101684.40;;;-10.60
69590;BMP180;56792;50.644;17.984;2022-12-18T19:21:53;101681.20;;;-10.60
69590;BMP180;56792;50.644;17.984;2022-12-18T19:24:32;101688.00;;;-10.54
69590;BMP180;56792;50.644;17.984;2022-12-18T19:27:08;101688.00;;;-10.50
69590;BMP180;56792;50.644;17.984;2022-12-18T19:29:54;101687.80;;;-10.46
69590;BMP180;56792;50.644;17.984;2022-12-18T19:32:37;101683.60;;;-10.36
69590;BMP180;56792;50.644;17.984;2022-12-18T19:35:16;101681.60;;;-10.30
69590;BMP180;56792;50.644;17.984;2022-12-18T19:38:02;101688.60;;;-10.20
69590;BMP180;56792;50.644;17.984;2022-12-18T19:40:45;101692.40;;;-10.16
69590;BMP180;56792;50.644;17.984;2022-12-18T19:43:23;101691.40;;;-10.20
69590;BMP180;56792;50.644;17.984;2022-12-18T19:46:00;101690.60;;;-10.20
69590;BMP180;56792;50.644;17.984;2022-12-18T19:48:35;101694.60;;;-10.20
69590;BMP180;56792;50.644;17.984;2022-12-18T19:51:14;101686.00;;;-10.20
69590;BMP180;56792;50.644;17.984;2022-12-18T19:53:53;101682.00;;;-10.20
69590;BMP180;56792;50.644;17.984;2022-12-18T19:56:35;101679.40;;;-10.30
69590;BMP180;56792;50.644;17.984;2022-12-18T19:59:14;101681.80;;;-10.30
69590;BMP180;56792;50.644;17.984;2022-12-18T20:02:01;101683.20;;;-10.40
69590;BMP180;56792;50.644;17.984;2022-12-18T20:04:42;101686.20;;;-10.40
69590;BMP180;56792;50.644;17.984;2022-12-18T20:07:22;101678.40;;;-10.44
69590;BMP180;56792;50.644;17.984;2022-12-18T20:09:59;101673.20;;;-10.50
69590;BMP180;56792;50.644;17.984;2022-12-18T20:12:38;101664.40;;;-10.50
69590;BMP180;56792;50.644;17.984;2022-12-18T20:15:21;101670.80;;;-10.50
69590;BMP180;56792;50.644;17.984;2022-12-18T20:18:03;101667.20;;;-10.50
69590;BMP180;56792;50.644;17.984;2022-12-18T20:20:45;101662.20;;;-10.50
69590;BMP180;56792;50.644;17.984;2022-12-18T20:23:23;101670.20;;;-10.50
69590;BMP180;56792;50.644;17.984;2022-12-18T20:26:00;101663.20;;;-10.42
69590;BMP180;56792;50.644;17.984;2022-12-18T20:28:44;101661.40;;;-10.30
69590;BMP180;56792;50.644;17.984;2022-12-18T20:31:33;101663.40;;;-10.30
69590;BMP180;56792;50.644;17.984;2022-12-18T20:34:16;101663.60;;;-10.24
69590;BMP180;56792;50.644;17.984;2022-12-18T20:36:55;101658.40;;;-10.30
69590;BMP180;56792;50.644;17.984;2022-12-18T20:39:34;101667.00;;;-10.30
69590;BMP180;56792;50.644;17.984;2022-12-18T20:42:10;101657.80;;;-10.30
69590;BMP180;56792;50.644;17.984;2022-12-18T20:44:48;101657.80;;;-10.30
69590;BMP180;56792;50.644;17.984;2022-12-18T20:47:23;101652.20;;;-10.30
69590;BMP180;56792;50.644;17.984;2022-12-18T20:50:04;101649.40;;;-10.30
69590;BMP180;56792;50.644;17.984;2022-12-18T20:53:01;101645.20;;;-10.30
69590;BMP180;56792;50.644;17.984;2022-12-18T20:55:45;101650.80;;;-10.30
69590;BMP180;56792;50.644;17.984;2022-12-18T20:58:36;101644.80;;;-10.32
69590;BMP180;56792;50.644;17.984;2022-12-18T21:01:25;101642.60;;;-10.32
69590;BMP180;56792;50.644;17.984;2022-12-18T21:04:16;101646.20;;;-10.30
69590;BMP180;56792;50.644;17.984;2022-12-18T21:06:55;101639.00;;;-10.30
69590;BMP180;56792;50.644;17.984;2022-12-18T21:09:35;101644.20;;;-10.42
69590;BMP180;56792;50.644;17.984;2022-12-18T21:12:24;101643.40;;;-10.54
69590;BMP180;56792;50.644;17.984;2022-12-18T21:15:23;101651.40;;;-10.64
69590;BMP180;56792;50.644;17.984;2022-12-18T21:18:06;101657.20;;;-10.70
69590;BMP180;56792;50.644;17.984;2022-12-18T21:20:40;101664.00;;;-10.80
69590;BMP180;56792;50.644;17.984;2022-12-18T21:23:15;101660.80;;;-10.80
69590;BMP180;56792;50.644;17.984;2022-12-18T21:25:51;101663.20;;;-10.80
69590;BMP180;56792;50.644;17.984;2022-12-18T21:28:30;101666.60;;;-10.78
69590;BMP180;56792;50.644;17.984;2022-12-18T21:31:11;101662.60;;;-10.70
69590;BMP180;56792;50.644;17.984;2022-12-18T21:33:48;101672.40;;;-10.76
69590;BMP180;56792;50.644;17.984;2022-12-18T21:36:33;101665.60;;;-10.80
69590;BMP180;56792;50.644;17.984;2022-12-18T21:39:21;101671.60;;;-10.80
69590;BMP180;56792;50.644;17.984;2022-12-18T21:42:04;101667.00;;;-10.70
69590;BMP180;56792;50.644;17.984;2022-12-18T21:45:00;101670.60;;;-10.74
69590;BMP180;56792;50.644;17.984;2022-12-18T21:47:35;101670.20;;;-10.80
69590;BMP180;56792;50.644;17.984;2022-12-18T21:50:10;101675.00;;;-10.86
69590;BMP180;56792;50.644;17.984;2022-12-18T21:52:53;101684.40;;;-10.90
69590;BMP180;56792;50.644;17.984;2022-12-18T21:55:28;101685.40;;;-10.92
69590;BMP180;56792;50.644;17.984;2022-12-18T21:58:03;101679.60;;;-11.00
69590;BMP180;56792;50.644;17.984;2022-12-18T22:00:42;101669.00;;;-11.00
69590;BMP180;56792;50.644;17.984;2022-12-18T22:03:16;101672.80;;;-11.00
69590;BMP180;56792;50.644;17.984;2022-12-18T22:05:49;101672.20;;;-11.10
69590;BMP180;56792;50.644;17.984;2022-12-18T22:08:24;101664.20;;;-11.12
69590;BMP180;56792;50.644;17.984;2022-12-18T22:15:02;101665.40;;;-11.06
69590;BMP180;56792;50.644;17.984;2022-12-18T22:17:36;101667.60;;;-11.00
69590;BMP180;56792;50.644;17.984;2022-12-18T22:20:11;101668.00;;;-11.00
69590;BMP180;56792;50.644;17.984;2022-12-18T22:22:44;101668.80;;;-11.00
69590;BMP180;56792;50.644;17.984;2022-12-18T22:25:18;101664.00;;;-10.92
69590;BMP180;56792;50.644;17.984;2022-12-18T22:27:52;101658.20;;;-10.90
69590;BMP180;56792;50.644;17.984;2022-12-18T22:30:47;101648.00;;;-11.00
69590;BMP180;56792;50.644;17.984;2022-12-18T22:33:21;101649.00;;;-10.98
69590;BMP180;56792;50.644;17.984;2022-12-18T22:35:55;101656.20;;;-10.90
69590;BMP180;56792;50.644;17.984;2022-12-18T22:38:28;101650.20;;;-10.90
69590;BMP180;56792;50.644;17.984;2022-12-18T22:41:01;101647.80;;;-10.82
69590;BMP180;56792;50.644;17.984;2022-12-18T22:43:33;101640.00;;;-10.80
69590;BMP180;56792;50.644;17.984;2022-12-18T22:46:07;101642.80;;;-10.80
69590;BMP180;56792;50.644;17.984;2022-12-18T22:48:42;101639.60;;;-10.80
69590;BMP180;56792;50.644;17.984;2022-12-18T22:51:18;101630.40;;;-10.80
69590;BMP180;56792;50.644;17.984;2022-12-18T22:53:51;101623.40;;;-10.80
69590;BMP180;56792;50.644;17.984;2022-12-18T22:56:23;101621.40;;;-10.80
69590;BMP180;56792;50.644;17.984;2022-12-18T22:58:56;101624.80;;;-10.80
69590;BMP180;56792;50.644;17.984;2022-12-18T23:01:30;101616.00;;;-10.80
69590;BMP180;56792;50.644;17.984;2022-12-18T23:04:03;101612.20;;;-10.76
69590;BMP180;56792;50.644;17.984;2022-12-18T23:06:36;101603.60;;;-10.70
69590;BMP180;56792;50.644;17.984;2022-12-18T23:09:14;101591.80;;;-10.70
69590;BMP180;56792;50.644;17.984;2022-12-18T23:11:48;101582.60;;;-10.70
69590;BMP180;56792;50.644;17.984;2022-12-18T23:14:21;101566.40;;;-10.60
69590;BMP180;56792;50.644;17.984;2022-12-18T23:16:54;101568.80;;;-10.50
69590;BMP180;56792;50.644;17.984;2022-12-18T23:19:26;101562.40;;;-10.44
69590;BMP180;56792;50.644;17.984;2022-12-18T23:22:01;101568.40;;;-10.30
69590;BMP180;56792;50.644;17.984;2022-12-18T23:24:34;101569.20;;;-10.20
69590;BMP180;56792;50.644;17.984;2022-12-18T23:27:07;101573.20;;;-10.02
69590;BMP180;56792;50.644;17.984;2022-12-18T23:29:40;101570.60;;;-9.90
69590;BMP180;56792;50.644;17.984;2022-12-18T23:32:13;101562.40;;;-9.84
69590;BMP180;56792;50.644;17.984;2022-12-18T23:34:46;101567.20;;;-9.70
69590;BMP180;56792;50.644;17.984;2022-12-18T23:37:18;101565.40;;;-9.70
69590;BMP180;56792;50.644;17.984;2022-12-18T23:39:51;101575.80;;;-9.60
69590;BMP180;56792;50.644;17.984;2022-12-18T23:42:23;101575.20;;;-9.50
69590;BMP180;56792;50.644;17.984;2022-12-18T23:44:55;101569.60;;;-9.46
69590;BMP180;56792;50.644;17.984;2022-12-18T23:47:28;101566.00;;;-9.40
69590;BMP180;56792;50.644;17.984;2022-12-18T23:50:01;101561.00;;;-9.30
69590;BMP180;56792;50.644;17.984;2022-12-18T23:52:34;101546.20;;;-9.30
69590;BMP180;56792;50.644;17.984;2022-12-18T23:55:07;101554.80;;;-9.20
69590;BMP180;56792;50.644;17.984;2022-12-18T23:57:40;101547.20;;;-9.20
